createdAt,value
2019-04-04T00:02:13.089Z,11.43
2019-04-04T00:04:43.237Z,12.30
2019-04-04T00:07:11.405Z,14.80
2019-04-04T00:09:39.579Z,11.97
2019-04-04T00:12:08.673Z,12.60
2019-04-04T00:14:36.766Z,12.90
2019-04-04T00:17:04.941Z,13.90
2019-04-04T00:19:32.890Z,12.50
2019-04-04T00:22:01.064Z,13.10
2019-04-04T00:24:29.235Z,12.60
2019-04-04T00:26:58.257Z,15.38
2019-04-04T00:29:26.219Z,11.25
2019-04-04T00:31:54.399Z,12.95
2019-04-04T00:34:22.702Z,14.37
2019-04-04T00:36:51.016Z,16.60
2019-04-04T00:39:19.081Z,16.48
2019-04-04T00:41:48.106Z,14.07
2019-04-04T00:44:16.171Z,14.38
2019-04-04T00:46:44.817Z,13.18
2019-04-04T00:49:13.145Z,15.45
2019-04-04T00:51:41.537Z,13.25
2019-04-04T00:54:09.730Z,13.62
2019-04-04T00:56:38.286Z,13.98
2019-04-04T00:59:06.441Z,13.80
2019-04-04T01:01:36.048Z,14.55
2019-04-04T01:04:04.434Z,13.60
2019-04-04T01:06:33.737Z,15.48
2019-04-04T01:09:05.277Z,15.73
2019-04-04T01:11:32.466Z,14.83
2019-04-04T01:14:00.635Z,14.95
2019-04-04T01:16:29.037Z,14.38
2019-04-04T01:18:57.210Z,15.67
2019-04-04T01:21:25.258Z,14.65
2019-04-04T01:23:53.337Z,14.35
2019-04-04T01:26:21.487Z,15.05
2019-04-04T01:28:49.719Z,15.03
2019-04-04T01:31:17.883Z,16.45
2019-04-04T01:33:46.082Z,14.68
2019-04-04T01:36:14.018Z,15.90
2019-04-04T01:38:41.941Z,16.10
2019-04-04T01:41:10.264Z,15.65
2019-04-04T01:43:40.072Z,14.13
2019-04-04T01:46:08.305Z,16.27
2019-04-04T01:48:36.239Z,14.15
2019-04-04T01:51:04.354Z,18.07
2019-04-04T01:53:32.293Z,13.80
2019-04-04T01:56:00.431Z,16.70
2019-04-04T01:58:29.100Z,15.83
2019-04-04T02:00:57.422Z,15.20
2019-04-04T02:03:25.841Z,14.70
2019-04-04T02:05:53.772Z,18.00
2019-04-04T02:08:22.476Z,18.67
2019-04-04T02:10:52.980Z,19.73
2019-04-04T02:13:22.430Z,16.42
2019-04-04T02:15:50.714Z,17.85
2019-04-04T02:18:19.347Z,17.02
2019-04-04T02:20:47.843Z,14.65
2019-04-04T02:23:16.621Z,18.45
2019-04-04T02:25:44.803Z,16.40
2019-04-04T02:28:13.170Z,18.00
2019-04-04T02:30:41.530Z,18.95
2019-04-04T02:33:09.943Z,19.92
2019-04-04T02:35:38.225Z,14.20
2019-04-04T02:38:06.749Z,20.17
2019-04-04T02:40:35.267Z,20.50
2019-04-04T02:43:03.871Z,24.75
2019-04-04T02:45:32.212Z,22.27
2019-04-04T02:48:00.369Z,17.98
2019-04-04T02:50:28.799Z,19.62
2019-04-04T02:52:57.456Z,18.45
2019-04-04T02:55:29.792Z,21.10
2019-04-04T02:57:56.673Z,18.40
2019-04-04T03:00:26.959Z,19.32
2019-04-04T03:02:54.727Z,21.85
2019-04-04T03:05:22.947Z,21.57
2019-04-04T03:07:51.467Z,20.88
2019-04-04T03:10:21.835Z,19.80
2019-04-04T03:12:50.822Z,19.67
2019-04-04T03:15:20.310Z,19.27
2019-04-04T03:17:48.302Z,19.00
2019-04-04T03:20:17.463Z,20.52
2019-04-04T03:22:45.867Z,16.62
2019-04-04T03:25:14.752Z,23.95
2019-04-04T03:27:43.832Z,21.60
2019-04-04T03:30:14.429Z,22.22
2019-04-04T03:32:42.061Z,20.43
2019-04-04T03:35:10.283Z,22.73
2019-04-04T03:37:41.770Z,17.48
2019-04-04T03:40:10.047Z,18.87
2019-04-04T03:42:37.952Z,17.30
2019-04-04T03:45:06.436Z,18.23
2019-04-04T03:47:34.679Z,19.52
2019-04-04T03:50:03.582Z,19.57
2019-04-04T03:52:32.165Z,19.85
2019-04-04T03:55:00.111Z,18.75
2019-04-04T03:57:28.284Z,18.45
2019-04-04T03:59:56.751Z,20.23
2019-04-04T04:02:25.185Z,17.52
2019-04-04T04:04:53.713Z,17.10
2019-04-04T04:07:22.453Z,19.02
2019-04-04T04:09:51.634Z,17.92
2019-04-04T04:12:19.910Z,19.00
2019-04-04T04:14:48.212Z,19.82
2019-04-04T04:17:17.102Z,24.57
2019-04-04T04:19:45.640Z,19.80
2019-04-04T04:22:18.174Z,18.67
2019-04-04T04:24:44.225Z,16.27
2019-04-04T04:27:15.466Z,21.25
2019-04-04T04:29:46.466Z,23.30
2019-04-04T04:32:14.854Z,21.40
2019-04-04T04:34:45.491Z,19.65
2019-04-04T04:37:14.194Z,18.95
2019-04-04T04:39:42.711Z,17.20
2019-04-04T04:42:11.393Z,21.12
2019-04-04T04:44:39.815Z,22.60
2019-04-04T04:47:08.232Z,23.55
2019-04-04T04:49:36.654Z,20.82
2019-04-04T04:52:05.091Z,24.10
2019-04-04T04:54:33.294Z,24.18
2019-04-04T04:57:03.928Z,18.90
2019-04-04T04:59:32.248Z,18.12
2019-04-04T05:02:01.616Z,20.27
2019-04-04T05:04:32.407Z,21.00
2019-04-04T05:07:01.049Z,19.98
2019-04-04T05:09:29.765Z,21.23
2019-04-04T05:11:58.594Z,22.30
2019-04-04T05:14:27.802Z,21.33
2019-04-04T05:16:57.822Z,21.97
2019-04-04T05:19:25.743Z,22.27
2019-04-04T05:21:54.262Z,23.32
2019-04-04T05:24:23.199Z,24.30
2019-04-04T05:26:51.364Z,24.18
2019-04-04T05:29:19.530Z,24.43
2019-04-04T05:31:50.141Z,20.88
2019-04-04T05:34:18.756Z,24.60
2019-04-04T05:36:47.189Z,20.20
2019-04-04T05:39:19.142Z,22.35
2019-04-04T05:41:47.801Z,20.32
2019-04-04T05:44:16.249Z,24.37
2019-04-04T05:46:44.674Z,23.70
2019-04-04T05:49:13.118Z,23.18
2019-04-04T05:51:41.306Z,21.03
2019-04-04T05:54:09.687Z,20.12
2019-04-04T05:56:37.700Z,21.70
2019-04-04T05:59:06.353Z,21.73
2019-04-04T06:01:36.011Z,20.90
2019-04-04T06:04:04.540Z,22.62
2019-04-04T06:06:33.398Z,20.85
2019-04-04T06:09:04.986Z,23.75
2019-04-04T06:11:33.158Z,22.20
2019-04-04T06:14:01.293Z,21.30
2019-04-04T06:16:30.339Z,29.85
2019-04-04T06:19:00.234Z,24.95
2019-04-04T06:21:28.153Z,25.57
2019-04-04T06:23:56.654Z,21.50
2019-04-04T06:26:25.005Z,19.97
2019-04-04T06:28:53.271Z,24.82
2019-04-04T06:31:21.429Z,20.15
2019-04-04T06:33:49.469Z,24.40
2019-04-04T06:36:18.590Z,25.37
2019-04-04T06:38:49.613Z,22.23
2019-04-04T06:41:16.634Z,21.82
2019-04-04T06:43:44.665Z,22.80
2019-04-04T06:46:12.679Z,22.07
2019-04-04T06:48:40.613Z,22.10
2019-04-04T06:51:08.629Z,28.83
2019-04-04T06:53:36.566Z,20.15
2019-04-04T06:56:04.557Z,20.20
2019-04-04T06:58:32.561Z,21.77
2019-04-04T07:01:00.591Z,17.70
2019-04-04T07:03:28.518Z,18.90
2019-04-04T07:05:56.638Z,22.63
2019-04-04T07:08:24.701Z,23.93
2019-04-04T07:10:58.240Z,21.80
2019-04-04T07:13:27.075Z,23.32
2019-04-04T07:16:06.284Z,21.12
2019-04-04T07:18:22.770Z,20.52
2019-04-04T07:20:50.979Z,23.10
2019-04-04T07:23:18.910Z,26.57
2019-04-04T07:25:46.821Z,23.95
2019-04-04T07:28:14.934Z,24.20
2019-04-04T07:30:42.889Z,22.27
2019-04-04T07:33:12.722Z,25.80
2019-04-04T07:35:40.709Z,22.90
2019-04-04T07:38:08.622Z,26.60
2019-04-04T07:40:37.371Z,21.97
2019-04-04T07:43:08.464Z,23.80
2019-04-04T07:45:35.626Z,22.67
2019-04-04T07:48:03.659Z,21.35
2019-04-04T07:50:31.774Z,18.27
2019-04-04T07:52:59.897Z,22.10
2019-04-04T07:55:27.797Z,20.08
2019-04-04T07:57:55.746Z,20.10
2019-04-04T08:00:23.683Z,19.65
2019-04-04T08:02:51.769Z,19.43
2019-04-04T08:05:19.661Z,21.17
2019-04-04T08:07:49.458Z,20.50
2019-04-04T08:10:20.733Z,22.10
2019-04-04T08:12:47.756Z,21.23
2019-04-04T08:15:15.781Z,24.47
2019-04-04T08:17:43.959Z,20.70
2019-04-04T08:20:16.371Z,23.57
2019-04-04T08:22:44.621Z,19.03
2019-04-04T08:25:12.759Z,21.53
2019-04-04T08:27:41.310Z,20.57
2019-04-04T08:30:10.022Z,22.50
2019-04-04T08:32:41.778Z,20.50
2019-04-04T08:35:10.354Z,21.23
2019-04-04T08:37:38.618Z,20.97
2019-04-04T08:40:06.759Z,18.97
2019-04-04T08:42:35.285Z,24.67
2019-04-04T08:45:05.909Z,19.30
2019-04-04T08:47:34.038Z,25.07
2019-04-04T08:50:02.157Z,25.13
2019-04-04T08:52:30.076Z,21.00
2019-04-04T08:54:57.986Z,24.90
2019-04-04T08:57:30.393Z,22.10
2019-04-04T08:59:58.339Z,26.20
2019-04-04T09:02:26.238Z,25.13
2019-04-04T09:04:54.228Z,21.00
2019-04-04T09:07:22.354Z,20.00
2019-04-04T09:09:58.505Z,25.30
2019-04-04T09:12:26.526Z,23.13
2019-04-04T09:14:54.541Z,20.50
2019-04-04T09:17:22.464Z,20.73
2019-04-04T09:19:50.378Z,23.05
2019-04-04T09:22:18.947Z,23.38
2019-04-04T09:24:46.833Z,22.82
2019-04-04T09:27:14.850Z,22.90
2019-04-04T09:29:43.244Z,21.95
2019-04-04T09:32:11.417Z,20.55
2019-04-04T09:34:39.341Z,18.82
2019-04-04T09:37:08.879Z,26.35
2019-04-04T09:39:37.429Z,26.85
2019-04-04T09:42:05.605Z,21.27
2019-04-04T09:44:33.761Z,23.10
2019-04-04T09:47:05.709Z,20.02
2019-04-04T09:49:32.709Z,19.35
2019-04-04T09:52:01.286Z,23.65
2019-04-04T09:54:29.582Z,20.60
2019-04-04T09:56:58.354Z,21.75
2019-04-04T09:59:27.246Z,25.32
2019-04-04T10:01:56.566Z,24.57
2019-04-04T10:04:24.994Z,21.87
2019-04-04T10:06:53.281Z,22.22
2019-04-04T10:09:21.729Z,25.68
2019-04-04T10:11:49.982Z,22.93
2019-04-04T10:14:21.111Z,30.17
2019-04-04T10:16:49.562Z,26.25
2019-04-04T10:19:17.973Z,27.27
2019-04-04T10:21:46.258Z,22.32
2019-04-04T10:24:14.765Z,28.85
2019-04-04T10:26:45.795Z,26.82
2019-04-04T10:29:13.966Z,25.05
2019-04-04T10:31:42.629Z,29.92
2019-04-04T10:34:11.165Z,27.65
2019-04-04T10:36:39.921Z,19.23
2019-04-04T10:39:11.778Z,26.05
2019-04-04T10:41:40.545Z,19.47
2019-04-04T10:44:09.773Z,21.68
2019-04-04T10:46:38.285Z,23.42
2019-04-04T10:49:14.111Z,17.95
2019-04-04T10:51:41.879Z,18.65
2019-04-04T10:54:08.804Z,23.35
2019-04-04T10:56:36.340Z,19.00
2019-04-04T10:59:04.494Z,16.90
2019-04-04T11:01:33.297Z,20.12
2019-04-04T11:04:02.487Z,18.43
2019-04-04T11:06:30.906Z,17.98
2019-04-04T11:08:59.322Z,17.15
2019-04-04T11:11:28.409Z,18.17
2019-04-04T11:14:00.338Z,15.78
2019-04-04T11:16:30.544Z,13.83
2019-04-04T11:18:58.833Z,15.85
2019-04-04T11:21:26.978Z,16.20
2019-04-04T11:23:55.528Z,15.98
2019-04-04T11:26:27.613Z,17.95
2019-04-04T11:28:55.652Z,18.13
2019-04-04T11:31:24.026Z,20.00
2019-04-04T11:33:52.605Z,16.50
2019-04-04T11:36:20.895Z,17.87
2019-04-04T11:38:51.626Z,14.03
2019-04-04T11:41:20.290Z,15.28
2019-04-04T11:43:49.088Z,15.68
2019-04-04T11:46:17.658Z,16.33
2019-04-04T11:48:45.594Z,19.02
2019-04-04T11:51:16.350Z,17.15
2019-04-04T11:53:44.305Z,16.62
2019-04-04T11:56:13.411Z,16.62
2019-04-04T11:58:42.406Z,15.20
2019-04-04T12:01:11.793Z,15.00
2019-04-04T12:03:43.222Z,12.47
2019-04-04T12:06:11.739Z,15.10
2019-04-04T12:08:40.508Z,13.25
2019-04-04T12:11:09.013Z,18.47
2019-04-04T12:13:37.518Z,23.27
2019-04-04T12:16:07.336Z,20.40
2019-04-04T12:18:35.882Z,18.13
2019-04-04T12:21:04.316Z,19.40
2019-04-04T12:23:32.616Z,16.43
2019-04-04T12:26:00.895Z,20.93
2019-04-04T12:28:32.898Z,13.57
2019-04-04T12:31:01.466Z,14.03
2019-04-04T12:33:29.878Z,9.07
2019-04-04T12:35:58.419Z,8.43
2019-04-04T12:38:26.818Z,11.40
2019-04-04T12:40:58.428Z,10.20
2019-04-04T12:43:26.338Z,8.13
2019-04-04T12:45:54.363Z,10.87
2019-04-04T12:48:22.291Z,7.80
2019-04-04T12:50:50.507Z,8.28
2019-04-04T12:53:22.558Z,9.00
2019-04-04T12:55:50.647Z,8.57
2019-04-04T12:58:18.930Z,10.30
2019-04-04T13:00:46.862Z,13.53
2019-04-04T13:03:14.808Z,12.27
2019-04-04T13:05:42.821Z,12.50
2019-04-04T13:08:12.005Z,13.00
2019-04-04T13:10:39.903Z,7.20
2019-04-04T13:13:08.082Z,9.93
2019-04-04T13:15:36.111Z,6.93
2019-04-04T13:18:04.298Z,6.43
2019-04-04T13:20:33.420Z,7.40
2019-04-04T13:23:02.430Z,5.27
2019-04-04T13:25:30.702Z,6.85
2019-04-04T13:27:59.358Z,6.90
2019-04-04T13:30:27.870Z,7.17
2019-04-04T13:32:56.543Z,6.13
2019-04-04T13:35:25.685Z,5.87
2019-04-04T13:37:54.317Z,5.40
2019-04-04T13:40:22.578Z,4.77
2019-04-04T13:42:53.044Z,4.43
2019-04-04T13:45:25.408Z,5.33
2019-04-04T13:47:54.803Z,4.00
2019-04-04T13:50:23.352Z,4.10
2019-04-04T13:52:51.537Z,5.35
2019-04-04T13:55:20.242Z,6.73
2019-04-04T13:57:52.075Z,6.37
2019-04-04T14:00:20.637Z,4.45
2019-04-04T14:02:49.492Z,4.77
2019-04-04T14:05:17.809Z,5.85
2019-04-04T14:07:46.590Z,5.37
2019-04-04T14:10:17.512Z,6.30
2019-04-04T14:12:47.444Z,6.50
2019-04-04T14:15:15.646Z,7.67
2019-04-04T14:17:44.369Z,6.10
2019-04-04T14:20:16.930Z,5.70
2019-04-04T14:22:47.744Z,6.20
2019-04-04T14:25:15.962Z,8.07
2019-04-04T14:27:44.257Z,5.50
2019-04-04T14:30:12.940Z,5.87
2019-04-04T14:32:45.982Z,4.60
2019-04-04T14:35:14.571Z,6.40
2019-04-04T14:37:42.494Z,6.60
2019-04-04T14:40:10.873Z,8.43
2019-04-04T14:42:39.284Z,5.80
2019-04-04T14:45:07.629Z,9.00
2019-04-04T14:47:35.758Z,9.70
2019-04-04T14:50:04.949Z,7.77
2019-04-04T14:52:33.816Z,5.70
2019-04-04T14:55:01.942Z,5.30
2019-04-04T14:57:30.561Z,8.30
2019-04-04T14:59:58.809Z,5.90
2019-04-04T15:02:27.149Z,8.37
2019-04-04T15:04:55.180Z,7.73
2019-04-04T15:07:23.609Z,6.40
2019-04-04T15:09:51.923Z,6.07
2019-04-04T15:12:22.357Z,5.53
2019-04-04T15:14:50.935Z,6.33
2019-04-04T15:17:19.350Z,6.00
2019-04-04T15:19:48.016Z,5.50
2019-04-04T15:22:16.345Z,5.77
2019-04-04T15:24:44.332Z,4.10
2019-04-04T15:27:12.706Z,3.57
2019-04-04T15:29:41.276Z,4.20
2019-04-04T15:32:10.038Z,5.00
2019-04-04T15:34:38.793Z,4.47
2019-04-04T15:37:06.810Z,5.12
2019-04-04T15:39:38.490Z,8.00
2019-04-04T15:42:07.016Z,4.10
2019-04-04T15:44:36.190Z,5.30
2019-04-04T15:47:05.344Z,6.23
2019-04-04T15:49:34.507Z,4.67
2019-04-04T15:52:02.727Z,5.37
2019-04-04T15:54:31.408Z,5.00
2019-04-04T15:56:59.614Z,5.43
2019-04-04T15:59:27.726Z,4.93
2019-04-04T16:01:56.641Z,6.70
2019-04-04T16:04:27.434Z,5.30
2019-04-04T16:06:56.171Z,7.80
2019-04-04T16:09:25.256Z,5.80
2019-04-04T16:11:55.066Z,6.33
2019-04-04T16:14:23.610Z,5.50
2019-04-04T16:16:52.768Z,5.73
2019-04-04T16:19:20.913Z,6.92
2019-04-04T16:21:49.130Z,4.63
2019-04-04T16:24:17.500Z,4.77
2019-04-04T16:26:46.124Z,4.80
2019-04-04T16:29:14.660Z,6.13
2019-04-04T16:31:43.674Z,3.85
2019-04-04T16:34:12.365Z,4.70
2019-04-04T16:36:40.681Z,5.63
2019-04-04T16:39:09.521Z,6.05
2019-04-04T16:41:37.692Z,5.20
2019-04-04T16:44:06.166Z,4.50
2019-04-04T16:46:34.722Z,4.80
2019-04-04T16:49:02.853Z,6.40
2019-04-04T16:51:31.329Z,4.97
2019-04-04T16:53:59.982Z,5.33
2019-04-04T16:56:28.511Z,5.50
2019-04-04T16:58:56.578Z,6.47
2019-04-04T17:01:28.613Z,5.53
2019-04-04T17:04:01.762Z,4.15
2019-04-04T17:06:27.464Z,6.37
2019-04-04T17:08:55.871Z,5.73
2019-04-04T17:11:24.169Z,5.43
2019-04-04T17:13:52.651Z,5.00
2019-04-04T17:16:21.457Z,6.65
2019-04-04T17:18:49.717Z,6.00
2019-04-04T17:21:18.170Z,6.60
2019-04-04T17:23:47.113Z,6.67
2019-04-04T17:26:15.592Z,6.95
2019-04-04T17:28:43.848Z,6.47
2019-04-04T17:31:12.500Z,5.33
2019-04-04T17:33:50.912Z,5.28
2019-04-04T17:36:20.607Z,5.65
2019-04-04T17:38:47.970Z,4.95
2019-04-04T17:41:15.467Z,6.53
2019-04-04T17:43:42.850Z,4.93
2019-04-04T17:46:10.250Z,7.80
2019-04-04T17:48:37.979Z,7.42
2019-04-04T17:51:05.449Z,5.67
2019-04-04T17:53:33.131Z,7.05
2019-04-04T17:56:00.827Z,6.70
2019-04-04T17:58:28.671Z,7.37
2019-04-04T18:00:57.256Z,7.55
2019-04-04T18:03:25.774Z,8.28
2019-04-04T18:05:53.681Z,7.20
2019-04-04T18:08:21.602Z,5.92
2019-04-04T18:10:49.637Z,7.50
2019-04-04T18:13:17.695Z,6.30
2019-04-04T18:15:45.877Z,7.93
2019-04-04T18:18:14.050Z,9.15
2019-04-04T18:20:42.322Z,9.93
2019-04-04T18:23:10.465Z,10.53
2019-04-04T18:25:38.575Z,7.30
2019-04-04T18:28:06.607Z,7.50
2019-04-04T18:30:34.748Z,12.20
2019-04-04T18:33:03.537Z,9.43
2019-04-04T18:35:31.594Z,9.00
2019-04-04T18:37:59.888Z,9.43
2019-04-04T18:40:28.442Z,10.30
2019-04-04T18:42:56.480Z,8.00
2019-04-04T18:45:24.938Z,7.67
2019-04-04T18:47:53.595Z,7.23
2019-04-04T18:50:22.109Z,6.90
2019-04-04T18:52:50.808Z,9.40
2019-04-04T18:55:20.381Z,10.87
2019-04-04T18:57:49.546Z,8.17
2019-04-04T19:00:20.097Z,8.57
2019-04-04T19:02:47.615Z,8.97
2019-04-04T19:05:16.186Z,6.97
2019-04-04T19:07:44.475Z,8.07
2019-04-04T19:10:13.240Z,10.03
2019-04-04T19:12:41.532Z,8.87
2019-04-04T19:15:10.475Z,9.30
2019-04-04T19:17:38.874Z,8.98
2019-04-04T19:20:09.933Z,11.20
2019-04-04T19:22:38.056Z,9.90
2019-04-04T19:25:07.106Z,10.40
2019-04-04T19:27:35.509Z,9.33
2019-04-04T19:30:04.527Z,16.97
2019-04-04T19:32:32.638Z,11.63
2019-04-04T19:35:01.572Z,10.80
2019-04-04T19:37:31.323Z,9.90
2019-04-04T19:40:00.129Z,9.67
2019-04-04T19:42:28.403Z,9.73
2019-04-04T19:44:56.822Z,14.10
2019-04-04T19:47:24.820Z,10.27
2019-04-04T19:49:53.102Z,10.60
2019-04-04T19:52:22.079Z,11.70
2019-04-04T19:54:50.867Z,10.87
2019-04-04T19:57:19.515Z,12.23
2019-04-04T19:59:48.397Z,14.20
2019-04-04T20:02:17.318Z,11.60
2019-04-04T20:04:45.448Z,10.43
2019-04-04T20:07:13.558Z,16.40
2019-04-04T20:09:42.338Z,11.97
2019-04-04T20:12:10.495Z,11.43
2019-04-04T20:14:38.526Z,14.67
2019-04-04T20:17:06.719Z,12.10
2019-04-04T20:19:34.658Z,12.83
2019-04-04T20:22:02.681Z,12.10
2019-04-04T20:24:30.712Z,14.20
2019-04-04T20:26:59.066Z,16.82
2019-04-04T20:29:27.100Z,15.47
2019-04-04T20:31:55.309Z,10.93
2019-04-04T20:34:23.229Z,11.80
2019-04-04T20:36:51.249Z,10.93
2019-04-04T20:39:19.400Z,11.40
2019-04-04T20:41:48.187Z,12.50
2019-04-04T20:44:16.586Z,13.33
2019-04-04T20:46:45.294Z,12.78
2019-04-04T20:49:13.442Z,11.60
2019-04-04T20:51:41.799Z,10.40
2019-04-04T20:54:10.658Z,12.73
2019-04-04T20:56:39.250Z,11.47
2019-04-04T20:59:07.754Z,12.30
2019-04-04T21:01:36.221Z,14.18
2019-04-04T21:04:04.345Z,10.53
2019-04-04T21:06:32.293Z,12.17
2019-04-04T21:09:00.795Z,13.53
2019-04-04T21:11:28.826Z,14.25
2019-04-04T21:13:56.857Z,18.33
2019-04-04T21:16:24.861Z,13.57
2019-04-04T21:18:52.839Z,13.67
2019-04-04T21:21:20.754Z,12.70
2019-04-04T21:23:48.722Z,17.90
2019-04-04T21:26:16.709Z,13.77
2019-04-04T21:28:44.657Z,15.87
2019-04-04T21:31:12.579Z,16.82
2019-04-04T21:33:40.860Z,13.40
2019-04-04T21:36:08.860Z,14.20
2019-04-04T21:38:36.787Z,13.57
2019-04-04T21:41:05.153Z,16.70
2019-04-04T21:43:33.062Z,17.87
2019-04-04T21:46:00.976Z,16.13
2019-04-04T21:48:28.904Z,15.63
2019-04-04T21:50:56.929Z,17.75
2019-04-04T21:53:24.864Z,20.17
2019-04-04T21:55:53.202Z,17.07
2019-04-04T21:58:23.934Z,20.65
2019-04-04T22:00:53.049Z,19.77
2019-04-04T22:03:21.079Z,17.67
2019-04-04T22:05:49.256Z,14.60
2019-04-04T22:08:17.269Z,18.10
2019-04-04T22:10:45.753Z,20.32
2019-04-04T22:13:13.696Z,20.20
2019-04-04T22:15:42.127Z,18.00
2019-04-04T22:18:10.250Z,19.40
2019-04-04T22:20:38.158Z,39.73
2019-04-04T22:23:06.092Z,22.90
2019-04-04T22:25:34.107Z,21.93
2019-04-04T22:28:02.245Z,18.82
2019-04-04T22:30:30.402Z,21.70
2019-04-04T22:32:58.309Z,22.20
2019-04-04T22:35:29.731Z,21.37
2019-04-04T22:37:57.634Z,20.82
2019-04-04T22:40:25.610Z,20.08
2019-04-04T22:42:53.691Z,19.20
2019-04-04T22:45:21.956Z,24.75
2019-04-04T22:47:49.924Z,21.87
2019-04-04T22:50:18.094Z,24.15
2019-04-04T22:52:49.263Z,19.47
2019-04-04T22:55:16.225Z,22.33
2019-04-04T22:57:44.151Z,21.70
2019-04-04T23:00:13.454Z,20.60
2019-04-04T23:02:41.598Z,23.23
2019-04-04T23:05:09.813Z,24.67
2019-04-04T23:07:37.927Z,23.83
2019-04-04T23:10:06.544Z,23.10
2019-04-04T23:12:34.810Z,22.93
2019-04-04T23:15:03.197Z,26.20
2019-04-04T23:17:31.210Z,25.23
2019-04-04T23:19:59.255Z,21.85
2019-04-04T23:22:27.153Z,26.23
2019-04-04T23:24:55.911Z,23.15
2019-04-04T23:27:23.828Z,25.48
2019-04-04T23:29:51.758Z,25.08
2019-04-04T23:32:19.783Z,24.52
2019-04-04T23:34:47.821Z,25.45
2019-04-04T23:37:15.782Z,24.83
2019-04-04T23:39:44.029Z,24.03
2019-04-04T23:42:11.958Z,23.25
2019-04-04T23:44:40.333Z,22.80
2019-04-04T23:47:08.259Z,24.12
2019-04-04T23:49:36.521Z,21.87
2019-04-04T23:52:04.901Z,26.47
2019-04-04T23:54:33.263Z,25.68
2019-04-04T23:57:01.321Z,22.00
2019-04-04T23:59:29.598Z,23.10
